Time;durP1;ratioP1;P1;durP2;ratioP2;P2;SDS_P1;SDS_P2;PMS_P1;PMS_P2;Temp;Humidity;BMP_temperature;BMP_pressure;BME280_temperature;BME280_humidity;BME280_pressure;Samples;Min_cycle;Max_cycle;Signal;HPM_P1;HPM_P2
2023/09/09 00:00:39;;;;;;;5.22;3.92;;;;;;;16.29;70.37;95214.25;5035424;28;20093;-72
2023/09/09 00:03:05;;;;;;;6.13;4.25;;;;;;;16.19;70.71;95226.63;5071227;28;20403;-72
2023/09/09 00:05:32;;;;;;;6.18;5.30;;;;;;;16.12;70.94;95230.81;5036334;28;20113;-72
2023/09/09 00:07:57;;;;;;;5.18;4.50;;;;;;;16.05;71.25;95220.13;5068923;28;20505;-72
2023/09/09 00:10:23;;;;;;;6.95;5.45;;;;;;;16.10;71.35;95224.91;5052759;28;20025;-72
2023/09/09 00:12:48;;;;;;;6.00;5.40;;;;;;;16.34;70.86;95213.00;5070737;28;20552;-72
2023/09/09 00:15:13;;;;;;;6.07;5.13;;;;;;;16.23;71.07;95216.66;5069520;28;20028;-72
2023/09/09 00:17:39;;;;;;;7.68;5.13;;;;;;;16.22;70.78;95212.41;5069694;28;20399;-72
2023/09/09 00:20:11;;;;;;;7.05;5.30;;;;;;;16.18;70.98;95218.91;5052712;28;20505;-72
2023/09/09 00:22:37;;;;;;;5.70;5.10;;;;;;;16.23;70.83;95217.47;5053561;28;20040;-72
2023/09/09 00:25:03;;;;;;;6.68;5.43;;;;;;;16.18;70.75;95218.91;5069427;28;20035;-72
2023/09/09 00:27:29;;;;;;;5.95;5.10;;;;;;;16.11;71.13;95210.84;5051959;28;20521;-72
2023/09/09 00:29:54;;;;;;;10.25;5.40;;;;;;;16.13;71.07;95201.03;5069347;28;20024;-72
2023/09/09 00:32:19;;;;;;;6.55;5.68;;;;;;;16.11;71.25;95215.28;5071074;28;20063;-72
2023/09/09 00:34:45;;;;;;;6.20;5.28;;;;;;;15.97;71.14;95195.66;5067831;28;20028;-72
2023/09/09 00:37:10;;;;;;;7.18;6.00;;;;;;;15.91;71.75;95206.72;5070974;28;20517;-72
2023/09/09 00:39:36;;;;;;;6.85;5.47;;;;;;;15.81;72.07;95207.63;5069518;28;20028;-72
2023/09/09 00:42:01;;;;;;;7.35;5.32;;;;;;;15.78;72.10;95207.13;5069529;28;20047;-73
2023/09/09 00:44:26;;;;;;;9.60;5.32;;;;;;;15.78;72.03;95201.88;5034950;28;20399;-72
2023/09/09 00:46:52;;;;;;;6.90;5.80;;;;;;;15.88;71.71;95205.25;5069322;28;20456;-72
2023/09/09 00:49:18;;;;;;;8.15;6.30;;;;;;;15.70;72.35;95209.66;5068895;28;20502;-72
2023/09/09 00:51:44;;;;;;;8.88;6.03;;;;;;;15.67;72.41;95196.81;5052650;28;20032;-72
2023/09/09 00:54:10;;;;;;;7.82;5.80;;;;;;;15.78;72.67;95201.88;5068276;28;20033;-72
2023/09/09 00:56:36;;;;;;;8.10;5.80;;;;;;;15.89;72.48;95196.41;5035930;28;20078;-72
2023/09/09 00:59:01;;;;;;;8.10;6.03;;;;;;;15.78;72.49;95191.41;5069110;28;20113;-72
2023/09/09 01:01:27;;;;;;;6.95;6.28;;;;;;;15.85;72.43;95202.91;5069189;28;20041;-72
2023/09/09 01:03:53;;;;;;;8.60;5.95;;;;;;;15.89;72.18;95191.16;5051497;28;20033;-72
2023/09/09 01:06:21;;;;;;;9.77;6.05;;;;;;;15.88;72.29;95194.78;5052561;28;20032;-72
2023/09/09 01:08:47;;;;;;;7.88;6.30;;;;;;;15.91;72.14;95196.25;5054513;28;20107;-72
2023/09/09 01:11:13;;;;;;;6.85;6.10;;;;;;;15.87;72.23;95185.25;5071530;28;20108;-72
2023/09/09 01:13:38;;;;;;;7.57;6.50;;;;;;;15.76;71.78;95161.91;5072472;28;20036;-72
2023/09/09 01:16:04;;;;;;;7.07;6.28;;;;;;;15.82;72.13;95188.34;5056011;28;20090;-72
2023/09/09 01:18:31;;;;;;;8.27;6.30;;;;;;;15.82;71.99;95172.63;5072528;28;20574;-72
2023/09/09 01:21:09;;;;;;;8.20;6.32;;;;;;;15.89;72.06;95185.13;5055293;28;20032;-72
2023/09/09 01:23:35;;;;;;;8.60;6.57;;;;;;;15.92;71.75;95180.38;5040066;28;20544;-72
2023/09/09 01:26:01;;;;;;;7.72;6.93;;;;;;;15.96;71.63;95186.13;5055790;28;20124;-72
2023/09/09 01:28:26;;;;;;;8.32;6.95;;;;;;;15.99;71.51;95186.69;5073646;28;20029;-72
2023/09/09 01:30:52;;;;;;;8.25;7.43;;;;;;;15.90;72.05;95182.31;5038234;28;20036;-72
2023/09/09 01:33:17;;;;;;;8.23;7.43;;;;;;;15.73;72.56;95168.25;5072286;28;20410;-72
2023/09/09 01:35:43;;;;;;;8.40;7.60;;;;;;;15.73;72.63;95183.16;5055572;28;20029;-72
2023/09/09 01:38:09;;;;;;;10.00;7.80;;;;;;;15.80;72.95;95182.41;5054333;28;20089;-72
2023/09/09 01:40:34;;;;;;;8.93;7.90;;;;;;;15.68;73.04;95165.25;5055549;28;20033;-72
2023/09/09 01:42:59;;;;;;;8.77;7.03;;;;;;;15.69;72.67;95163.50;5072173;28;20423;-72
2023/09/09 01:45:25;;;;;;;9.07;7.35;;;;;;;15.83;72.77;95178.69;5073251;28;20114;-72
2023/09/09 01:47:51;;;;;;;11.15;8.15;;;;;;;15.59;73.06;95168.75;5071031;28;20033;-72
2023/09/09 01:50:16;;;;;;;8.48;7.45;;;;;;;15.79;72.81;95178.13;5071914;28;20522;-72
2023/09/09 01:52:41;;;;;;;9.18;7.60;;;;;;;15.78;72.49;95180.91;5055407;28;20518;-72
2023/09/09 01:55:07;;;;;;;9.10;8.15;;;;;;;15.69;72.81;95176.59;5073019;28;20035;-73
2023/09/09 01:57:33;;;;;;;9.00;8.07;;;;;;;15.61;73.00;95165.03;5071106;28;20028;-72
2023/09/09 01:59:58;;;;;;;11.15;8.07;;;;;;;15.71;72.89;95179.84;5071837;28;20479;-72
2023/09/09 02:02:24;;;;;;;9.43;8.27;;;;;;;15.68;73.05;95170.50;5071997;28;20040;-72
2023/09/09 02:04:49;;;;;;;9.35;8.15;;;;;;;15.70;73.27;95173.81;5038305;28;20396;-72
2023/09/09 02:07:15;;;;;;;9.40;8.50;;;;;;;15.88;72.79;95186.06;5037662;28;20506;-72
2023/09/09 02:09:41;;;;;;;9.73;8.73;;;;;;;15.70;72.86;95184.28;5071686;28;20028;-72
2023/09/09 02:12:06;;;;;;;10.60;8.77;;;;;;;15.69;72.90;95172.16;5071845;28;20040;-72
2023/09/09 02:14:32;;;;;;;10.82;9.00;;;;;;;15.46;73.16;95160.44;5070084;28;20032;-72
2023/09/09 02:16:57;;;;;;;9.95;8.93;;;;;;;15.60;73.23;95179.09;5054745;28;20040;-72
2023/09/09 02:19:23;;;;;;;9.77;8.88;;;;;;;15.34;73.15;95146.75;5070589;28;20027;-72
2023/09/09 02:21:48;;;;;;;10.18;8.43;;;;;;;15.52;72.32;95167.72;5072923;28;20028;-72
2023/09/09 02:24:14;;;;;;;12.85;9.25;;;;;;;15.42;73.11;95171.22;5037258;28;20470;-72
2023/09/09 02:26:39;;;;;;;12.27;10.07;;;;;;;15.29;74.09;95165.50;5071305;28;20395;-72
2023/09/09 02:29:05;;;;;;;10.43;9.32;;;;;;;15.38;73.97;95169.06;5072476;28;20031;-72
2023/09/09 02:31:30;;;;;;;10.70;9.65;;;;;;;15.32;73.96;95167.00;5072711;28;20402;-72
2023/09/09 02:33:55;;;;;;;10.57;9.48;;;;;;;15.38;73.86;95163.81;5069805;28;20032;-72
2023/09/09 02:36:21;;;;;;;10.60;9.48;;;;;;;15.33;73.39;95168.66;5071132;28;20028;-72
2023/09/09 02:38:47;;;;;;;12.13;10.10;;;;;;;15.18;75.21;95169.19;5071046;28;20040;-72
2023/09/09 02:41:12;;;;;;;11.02;9.93;;;;;;;15.16;75.31;95165.88;5071196;28;20040;-72
2023/09/09 02:43:37;;;;;;;11.48;10.35;;;;;;;15.17;74.96;95159.66;5053349;28;20398;-72
2023/09/09 02:46:03;;;;;;;13.35;10.20;;;;;;;15.25;74.61;95176.44;5054261;28;20040;-72
2023/09/09 02:48:29;;;;;;;15.75;10.57;;;;;;;15.16;75.59;95160.63;5070905;28;20025;-72
2023/09/09 02:50:55;;;;;;;15.23;10.85;;;;;;;15.07;75.54;95160.69;5069224;28;20082;-72
2023/09/09 02:53:21;;;;;;;11.18;9.93;;;;;;;15.13;74.78;95171.41;5070792;28;20070;-72
2023/09/09 02:55:47;;;;;;;13.23;10.63;;;;;;;15.08;75.11;95167.56;5070504;28;20032;-72
2023/09/09 02:58:13;;;;;;;12.20;10.45;;;;;;;15.03;75.68;95173.22;5051758;28;20047;-72
2023/09/09 03:00:39;;;;;;;11.30;10.15;;;;;;;15.08;74.93;95171.00;5053060;28;20108;-72
2023/09/09 03:03:05;;;;;;;10.88;9.77;;;;;;;14.89;74.67;95137.09;5052990;28;20040;-72
2023/09/09 03:05:34;;;;;;;14.10;11.50;;;;;;;14.91;75.19;95151.69;5068904;28;20078;-72
2023/09/09 03:08:00;;;;;;;12.70;11.38;;;;;;;15.12;75.50;95168.91;5069559;28;20270;-72
2023/09/09 03:10:25;;;;;;;13.38;12.02;;;;;;;15.08;75.44;95167.56;5069561;28;20509;-72
2023/09/09 03:12:50;;;;;;;13.35;11.90;;;;;;;15.06;75.52;95170.31;5069434;28;20058;-72
2023/09/09 03:15:16;;;;;;;14.30;12.25;;;;;;;15.02;75.75;95165.53;5052619;28;20036;-72
2023/09/09 03:17:41;;;;;;;14.30;12.10;;;;;;;15.02;75.61;95166.38;5071213;28;20039;-72
2023/09/09 03:20:07;;;;;;;14.90;12.30;;;;;;;15.04;75.59;95169.63;5070216;28;20029;-72
2023/09/09 03:22:33;;;;;;;13.48;11.57;;;;;;;15.05;75.05;95157.41;5069159;28;20039;-72
2023/09/09 03:24:58;;;;;;;13.85;11.90;;;;;;;15.16;74.93;95155.41;5068169;28;20469;-72
2023/09/09 03:27:24;;;;;;;13.70;11.52;;;;;;;15.09;74.76;95164.78;5067738;28;20037;-72
2023/09/09 03:29:49;;;;;;;15.13;12.50;;;;;;;14.92;75.63;95170.81;5066666;28;20418;-72
2023/09/09 03:32:15;;;;;;;15.45;12.82;;;;;;;15.00;75.24;95170.91;5065092;28;20032;-72
2023/09/09 03:34:40;;;;;;;14.60;12.57;;;;;;;15.00;75.49;95170.91;5049248;28;20434;-72
2023/09/09 03:37:06;;;;;;;15.50;13.02;;;;;;;14.92;76.06;95174.25;5068580;28;20040;-72
2023/09/09 03:39:32;;;;;;;14.73;13.10;;;;;;;14.98;75.62;95175.47;5065872;28;20031;-72
2023/09/09 03:41:57;;;;;;;14.38;12.88;;;;;;;15.01;75.26;95163.88;5034011;28;20033;-72
2023/09/09 03:44:22;;;;;;;14.50;12.50;;;;;;;15.07;74.93;95166.75;5033572;28;20031;-72
2023/09/09 03:46:48;;;;;;;15.48;12.77;;;;;;;15.00;74.96;95157.84;5066447;28;20037;-72
2023/09/09 03:49:14;;;;;;;14.25;12.73;;;;;;;14.78;75.12;95134.69;5051837;28;20469;-72
2023/09/09 03:51:40;;;;;;;15.23;12.18;;;;;;;15.12;74.31;95161.06;5066336;28;20031;-72
2023/09/09 03:54:05;;;;;;;14.68;13.15;;;;;;;15.00;74.67;95168.28;5067730;28;20024;-72
2023/09/09 03:56:31;;;;;;;13.32;11.90;;;;;;;15.06;74.55;95162.47;5067708;28;20400;-72
2023/09/09 03:58:56;;;;;;;15.43;13.05;;;;;;;14.98;74.93;95165.00;5051131;28;20403;-72
2023/09/09 04:01:21;;;;;;;17.40;12.95;;;;;;;14.92;74.76;95157.72;5069508;28;20494;-72
2023/09/09 04:03:47;;;;;;;17.40;13.68;;;;;;;14.76;74.64;95150.50;5034380;28;20036;-72
2023/09/09 04:06:12;;;;;;;17.98;12.52;;;;;;;15.02;74.62;95171.59;5051284;28;20043;-72
2023/09/09 04:08:38;;;;;;;16.30;13.23;;;;;;;15.04;74.75;95169.63;5050744;28;20037;-72
2023/09/09 04:11:04;;;;;;;15.98;13.70;;;;;;;14.96;74.78;95170.38;5051623;28;20295;-72
2023/09/09 04:13:29;;;;;;;14.80;12.27;;;;;;;14.81;74.51;95181.47;5051631;28;20090;-72
2023/09/09 04:15:56;;;;;;;13.20;11.18;;;;;;;14.94;73.82;95171.50;5051346;28;20028;-72
2023/09/09 04:18:22;;;;;;;13.10;10.95;;;;;;;14.93;73.51;95169.84;5068930;28;20455;-72
2023/09/09 04:20:47;;;;;;;14.50;12.25;;;;;;;14.82;73.70;95165.63;5070421;28;20040;-72
2023/09/09 04:23:13;;;;;;;14.45;12.10;;;;;;;14.85;73.45;95169.72;5070665;28;20024;-72
2023/09/09 04:25:38;;;;;;;13.48;11.95;;;;;;;14.66;74.00;95166.25;5070604;28;20035;-72
2023/09/09 04:28:05;;;;;;;14.52;12.40;;;;;;;14.66;73.97;95175.88;5052658;28;20028;-72
2023/09/09 04:30:30;;;;;;;15.27;11.93;;;;;;;14.78;73.68;95173.91;5051772;28;20517;-72
2023/09/09 04:32:55;;;;;;;14.38;12.15;;;;;;;14.72;73.59;95175.31;5068920;28;20032;-72
2023/09/09 04:35:21;;;;;;;13.38;11.98;;;;;;;14.64;73.80;95164.75;5070320;28;20021;-73
2023/09/09 04:37:46;;;;;;;15.45;12.32;;;;;;;14.51;74.47;95159.78;5069325;28;20024;-72
2023/09/09 04:40:12;;;;;;;16.15;13.18;;;;;;;14.53;75.28;95163.13;5069370;28;20032;-72
2023/09/09 04:42:37;;;;;;;13.50;12.00;;;;;;;14.64;75.60;95159.50;5053233;28;20029;-72
2023/09/09 04:45:04;;;;;;;15.18;12.77;;;;;;;14.69;75.49;95170.38;5074435;28;20445;-72
2023/09/09 04:47:29;;;;;;;14.10;12.60;;;;;;;14.70;75.91;95167.59;5040125;28;20040;-72
2023/09/09 04:49:57;;;;;;;14.90;11.93;;;;;;;14.79;74.79;95159.84;5073048;28;20074;-72
2023/09/09 04:52:23;;;;;;;14.88;12.52;;;;;;;14.71;74.52;95166.66;5056802;28;20417;-71
2023/09/09 04:54:49;;;;;;;15.30;12.45;;;;;;;14.78;74.46;95176.53;5072888;28;20025;-72
2023/09/09 04:57:15;;;;;;;12.80;11.45;;;;;;;14.93;74.39;95180.28;5056507;28;20035;-72
2023/09/09 04:59:41;;;;;;;13.80;12.02;;;;;;;15.68;72.48;95174.88;5071725;28;20028;-72
2023/09/09 05:02:06;;;;;;;14.38;11.85;;;;;;;16.50;69.49;95165.91;5057839;28;20064;-72
2023/09/09 05:04:32;;;;;;;13.23;11.27;;;;;;;17.40;66.20;95169.75;5036456;28;20029;-72
2023/09/09 05:06:57;;;;;;;13.63;10.98;;;;;;;18.35;62.74;95168.56;5046868;28;20483;-72
2023/09/09 05:09:23;;;;;;;14.02;9.77;;;;;;;19.10;59.60;95147.16;5039125;28;20063;-73
2023/09/09 05:11:48;;;;;;;13.50;10.82;;;;;;;19.89;58.02;95168.94;5036217;28;20471;-72
2023/09/09 05:14:14;;;;;;;11.15;9.55;;;;;;;20.56;55.10;95164.81;5055247;28;20029;-72
2023/09/09 05:16:39;;;;;;;10.98;9.88;;;;;;;21.06;53.80;95153.56;5035727;28;20036;-73
2023/09/09 05:19:05;;;;;;;10.38;9.20;;;;;;;21.46;52.98;95161.16;5062017;28;20047;-73
2023/09/09 05:21:30;;;;;;;12.90;11.38;;;;;;;21.84;52.03;95161.75;5070560;28;20040;-73
2023/09/09 05:23:55;;;;;;;14.45;12.95;;;;;;;21.59;51.55;95162.16;5071410;28;20483;-73
2023/09/09 05:26:21;;;;;;;18.10;14.98;;;;;;;21.25;52.21;95156.59;5067636;28;20410;-74
2023/09/09 05:28:47;;;;;;;14.27;12.75;;;;;;;20.94;53.41;95165.56;5031534;28;20025;-73
2023/09/09 05:31:13;;;;;;;12.55;10.35;;;;;;;20.46;54.61;95165.84;5071475;28;20506;-74
2023/09/09 05:33:39;;;;;;;18.95;10.68;;;;;;;20.28;55.30;95168.00;5074032;28;20028;-73
2023/09/09 05:36:05;;;;;;;14.50;11.15;;;;;;;19.93;56.20;95137.81;5067793;28;20032;-74
2023/09/09 05:38:30;;;;;;;12.15;10.85;;;;;;;20.17;56.40;95166.63;5069100;28;20028;-74
2023/09/09 05:40:55;;;;;;;13.15;11.00;;;;;;;19.88;57.12;95164.69;5071359;28;20037;-74
2023/09/09 05:43:21;;;;;;;11.13;9.57;;;;;;;20.02;56.29;95136.75;5060833;28;20028;-74
2023/09/09 05:45:47;;;;;;;12.65;10.40;;;;;;;20.27;56.41;95158.44;5038504;28;20037;-74
2023/09/09 05:48:12;;;;;;;10.05;9.05;;;;;;;20.19;56.71;95164.59;5033676;28;20037;-74
2023/09/09 05:50:38;;;;;;;12.52;10.30;;;;;;;20.15;56.58;95151.97;5051565;28;20040;-74
2023/09/09 05:53:03;;;;;;;9.90;8.90;;;;;;;20.30;56.82;95168.63;5036084;28;20457;-74
2023/09/09 05:55:29;;;;;;;10.70;9.60;;;;;;;20.15;57.69;95160.69;5031851;28;20056;-74
2023/09/09 05:57:54;;;;;;;13.40;9.25;;;;;;;20.15;57.02;95155.41;5055789;28;20036;-74
2023/09/09 06:00:20;;;;;;;13.57;9.27;;;;;;;20.27;57.05;95171.63;5071496;28;20130;-73
2023/09/09 06:02:45;;;;;;;10.70;9.35;;;;;;;20.26;56.63;95176.09;5057780;28;20033;-73
2023/09/09 06:05:11;;;;;;;10.55;9.55;;;;;;;20.26;57.24;95167.38;5054148;28;20457;-73
2023/09/09 06:07:36;;;;;;;9.82;8.70;;;;;;;20.37;57.09;95172.22;5059356;28;20036;-73
2023/09/09 06:10:02;;;;;;;9.88;8.65;;;;;;;20.25;57.80;95174.47;5049993;28;20025;-73
2023/09/09 06:12:27;;;;;;;9.85;8.85;;;;;;;20.15;58.13;95157.25;5062115;28;20034;-73
2023/09/09 06:14:53;;;;;;;17.27;10.40;;;;;;;20.34;58.20;95175.22;5055889;28;20036;-73
2023/09/09 06:17:18;;;;;;;13.07;9.43;;;;;;;20.47;56.75;95178.03;5053215;28;20479;-74
2023/09/09 06:19:44;;;;;;;9.70;8.75;;;;;;;20.53;57.12;95177.38;5050549;28;20033;-74
2023/09/09 06:22:09;;;;;;;11.65;9.30;;;;;;;20.40;56.97;95153.38;5058771;28;20028;-74
2023/09/09 06:24:35;;;;;;;13.20;9.57;;;;;;;20.64;56.75;95168.19;5071082;28;20065;-74
2023/09/09 06:27:00;;;;;;;11.10;10.00;;;;;;;20.45;57.09;95174.78;5055621;28;20040;-74
2023/09/09 06:29:27;;;;;;;13.43;9.95;;;;;;;20.66;57.23;95175.94;5072336;28;20078;-74
2023/09/09 06:31:52;;;;;;;12.10;10.65;;;;;;;20.51;56.97;95175.88;5063227;28;20116;-74
2023/09/09 06:34:18;;;;;;;13.80;10.93;;;;;;;20.29;57.70;95180.19;5034333;28;20028;-73
2023/09/09 06:36:43;;;;;;;13.10;9.98;;;;;;;20.50;57.32;95168.94;5049739;28;20146;-74
2023/09/09 06:39:09;;;;;;;13.82;10.55;;;;;;;20.34;57.58;95172.56;5050343;28;20478;-74
2023/09/09 06:41:34;;;;;;;11.90;10.70;;;;;;;20.43;57.29;95171.50;5054120;28;20070;-74
2023/09/09 06:44:00;;;;;;;15.32;11.18;;;;;;;20.52;57.11;95180.97;5049580;28;20029;-74
2023/09/09 06:46:25;;;;;;;11.38;10.27;;;;;;;20.33;57.60;95178.84;5033948;28;20071;-74
2023/09/09 06:48:50;;;;;;;13.55;10.57;;;;;;;20.47;56.89;95167.47;5040535;28;20078;-74
2023/09/09 06:51:16;;;;;;;11.23;10.05;;;;;;;20.44;57.14;95173.13;5071038;28;20441;-74
2023/09/09 06:53:42;;;;;;;11.45;9.52;;;;;;;20.88;56.78;95168.94;5040623;28;20051;-74
2023/09/09 06:56:07;;;;;;;14.82;9.55;;;;;;;21.16;55.89;95172.56;5056086;28;20506;-74
2023/09/09 06:58:32;;;;;;;12.65;9.35;;;;;;;20.97;55.79;95162.56;5050051;28;20025;-74
2023/09/09 07:00:58;;;;;;;12.82;8.95;;;;;;;20.83;55.58;95181.84;5052251;28;20037;-74
2023/09/09 07:03:23;;;;;;;9.57;8.57;;;;;;;21.07;55.33;95157.81;5051859;28;20457;-74
2023/09/09 07:05:49;;;;;;;14.63;9.02;;;;;;;21.44;54.86;95173.75;5013728;28;20037;-74
2023/09/09 07:08:14;;;;;;;10.25;9.13;;;;;;;21.58;54.01;95183.47;5049779;28;20461;-74
2023/09/09 07:10:48;;;;;;;11.43;9.50;;;;;;;21.17;54.12;95170.72;5032401;28;20411;-74
2023/09/09 07:13:13;;;;;;;11.85;9.75;;;;;;;21.46;54.13;95190.25;5050497;28;20020;-74
2023/09/09 07:15:39;;;;;;;11.10;9.48;;;;;;;21.27;54.21;95183.66;5043455;28;20028;-74
2023/09/09 07:18:04;;;;;;;13.02;9.63;;;;;;;21.23;54.38;95182.38;5050287;28;20033;-74
2023/09/09 07:20:30;;;;;;;9.98;8.98;;;;;;;21.52;53.44;95189.50;5050021;28;20494;-74
2023/09/09 07:22:55;;;;;;;12.93;8.85;;;;;;;21.64;52.79;95180.06;5053263;28;20032;-74
2023/09/09 07:25:21;;;;;;;12.50;9.25;;;;;;;21.86;53.11;95176.44;5036916;28;20024;-74
2023/09/09 07:27:46;;;;;;;12.10;8.45;;;;;;;21.47;52.88;95184.75;5064659;28;20086;-74
2023/09/09 07:30:12;;;;;;;13.25;8.50;;;;;;;21.58;52.83;95176.34;5048453;28;20040;-75
2023/09/09 07:32:37;;;;;;;9.23;7.47;;;;;;;22.13;51.14;95165.31;5042921;28;20502;-75
2023/09/09 07:35:03;;;;;;;9.27;8.00;;;;;;;21.87;51.41;95177.28;5066017;28;20043;-74
2023/09/09 07:37:29;;;;;;;8.80;7.20;;;;;;;21.67;50.89;95179.69;5060894;28;20055;-74
2023/09/09 07:39:56;;;;;;;7.70;5.95;;;;;;;21.76;49.46;95183.06;5042774;28;20033;-75
2023/09/09 07:42:21;;;;;;;9.65;6.32;;;;;;;22.16;48.85;95178.97;5016613;28;20041;-75
2023/09/09 07:44:47;;;;;;;9.07;5.15;;;;;;;22.40;46.88;95174.31;5030666;28;20087;-75
2023/09/09 07:47:12;;;;;;;5.57;4.20;;;;;;;22.30;46.58;95164.88;5048351;28;20044;-74
2023/09/09 07:49:38;;;;;;;5.70;4.00;;;;;;;22.56;44.30;95163.44;5016483;28;20056;-74
2023/09/09 07:52:04;;;;;;;3.83;3.15;;;;;;;22.97;39.85;95154.78;5038796;28;20036;-74
2023/09/09 07:54:30;;;;;;;5.07;3.20;;;;;;;23.27;41.61;95170.44;5035239;28;20028;-74
2023/09/09 07:56:55;;;;;;;8.55;3.53;;;;;;;23.38;42.63;95177.81;5035268;28;20391;-74
2023/09/09 07:59:22;;;;;;;5.07;3.72;;;;;;;23.55;40.95;95168.50;5056039;28;20048;-79
2023/09/09 08:01:47;;;;;;;3.63;3.10;;;;;;;23.76;40.79;95153.47;5036136;28;20041;-77
2023/09/09 08:04:13;;;;;;;5.78;3.50;;;;;;;24.02;39.42;95139.47;5052321;28;20060;-77
2023/09/09 08:06:39;;;;;;;4.60;3.00;;;;;;;24.29;37.25;95156.19;5039677;28;20032;-77
2023/09/09 08:09:05;;;;;;;5.85;2.90;;;;;;;24.07;38.50;95161.72;5036924;28;20474;-77
2023/09/09 08:11:31;;;;;;;4.38;3.20;;;;;;;23.72;39.05;95170.81;5049279;28;20037;-77
2023/09/09 08:13:56;;;;;;;5.07;3.08;;;;;;;23.71;38.89;95161.22;5031137;28;20037;-77
2023/09/09 08:16:22;;;;;;;4.75;3.17;;;;;;;23.90;38.37;95155.13;5048831;28;20584;-77
2023/09/09 08:18:47;;;;;;;3.53;2.95;;;;;;;24.09;37.24;95149.03;5038059;28;20033;-77
2023/09/09 08:21:13;;;;;;;5.80;2.70;;;;;;;24.04;36.53;95140.06;5068690;28;20107;-77
2023/09/09 08:23:39;;;;;;;6.47;2.90;;;;;;;24.39;36.57;95153.16;5015913;28;20486;-77
2023/09/09 08:26:04;;;;;;;3.67;2.47;;;;;;;24.38;35.75;95157.66;5047337;28;20060;-77
2023/09/09 08:28:30;;;;;;;3.47;2.28;;;;;;;24.20;32.60;95154.78;5066991;28;20048;-77
2023/09/09 08:30:59;;;;;;;2.88;2.38;;;;;;;23.90;34.21;95122.50;5048364;28;20529;-77
2023/09/09 08:33:24;;;;;;;5.22;2.58;;;;;;;24.20;34.26;95154.78;5034110;28;20064;-77
2023/09/09 08:35:50;;;;;;;5.22;2.70;;;;;;;23.98;34.47;95152.28;5053398;28;20501;-77
2023/09/09 08:38:15;;;;;;;4.65;2.42;;;;;;;24.02;35.17;95152.72;5056712;28;20021;-77
2023/09/09 08:41:03;;;;;;;3.42;2.22;;;;;;;23.77;34.92;95118.00;5032059;28;20048;-77
2023/09/09 08:43:56;;;;;;;3.72;2.40;;;;;;;24.08;34.81;95136.81;5038102;28;20036;-77
2023/09/09 08:46:22;;;;;;;5.93;2.47;;;;;;;23.90;34.50;95141.06;5053596;28;20037;-77
2023/09/09 08:48:51;;;;;;;4.70;2.78;;;;;;;23.88;34.21;95146.59;5049468;28;20509;-77
2023/09/09 08:51:17;;;;;;;5.35;2.30;;;;;;;23.66;34.02;95137.94;5047056;28;20158;-77
2023/09/09 08:53:43;;;;;;;4.72;2.60;;;;;;;23.79;33.83;95121.25;5033419;28;20049;-77
2023/09/09 08:56:12;;;;;;;3.28;2.50;;;;;;;23.96;33.54;95116.38;5039114;28;20052;-77
2023/09/09 08:58:40;;;;;;;6.40;2.60;;;;;;;23.94;33.96;95140.47;5038062;28;20036;-75
2023/09/09 09:01:05;;;;;;;3.80;2.70;;;;;;;24.23;32.86;95133.94;5054382;28;20115;-73
2023/09/09 09:03:32;;;;;;;5.82;2.38;;;;;;;24.22;32.43;95127.00;5031171;28;20090;-73
2023/09/09 09:05:57;;;;;;;3.97;2.47;;;;;;;24.11;34.25;95129.47;5030179;28;20490;-73
2023/09/09 09:08:23;;;;;;;3.05;2.22;;;;;;;24.01;31.64;95112.09;5014246;28;20066;-73
2023/09/09 09:10:48;;;;;;;2.90;2.17;;;;;;;24.06;32.19;95135.38;5048543;28;20025;-73
2023/09/09 09:13:14;;;;;;;3.10;2.03;;;;;;;24.19;31.67;95116.00;5048206;28;20079;-73
2023/09/09 09:15:41;;;;;;;3.10;1.92;;;;;;;23.68;31.32;95127.94;5031505;28;20041;-73
2023/09/09 09:18:08;;;;;;;2.95;2.28;;;;;;;23.92;31.84;95126.59;5031651;28;20124;-74
2023/09/09 09:20:33;;;;;;;5.00;2.63;;;;;;;23.72;31.20;95101.88;5047046;28;20056;-74
2023/09/09 09:23:20;;;;;;;4.38;2.20;;;;;;;24.06;31.67;95122.91;5047452;28;20021;-73
2023/09/09 09:25:46;;;;;;;3.30;2.20;;;;;;;23.88;32.76;95124.56;5047256;28;20045;-73
2023/09/09 09:28:13;;;;;;;3.85;2.40;;;;;;;23.98;33.63;95119.66;5032297;28;20033;-74
2023/09/09 09:30:38;;;;;;;5.10;2.30;;;;;;;23.97;32.59;95113.53;5035651;28;20025;-74
2023/09/09 09:33:04;;;;;;;6.22;2.60;;;;;;;24.05;33.07;95125.78;5052304;28;20043;-73
2023/09/09 09:35:31;;;;;;;3.33;2.20;;;;;;;24.24;33.24;95110.91;5053269;28;20040;-74
2023/09/09 09:38:03;;;;;;;4.82;2.25;;;;;;;24.07;31.57;95111.31;5035686;28;20025;-74
2023/09/09 09:40:29;;;;;;;4.00;2.33;;;;;;;24.16;32.30;95111.09;5035513;28;20499;-74
2023/09/09 09:42:55;;;;;;;6.47;2.38;;;;;;;24.30;32.84;95102.94;5018956;28;20025;-74
2023/09/09 09:45:26;;;;;;;4.32;2.50;;;;;;;24.06;32.81;95085.78;5035598;28;20502;-73
2023/09/09 09:47:53;;;;;;;4.40;2.38;;;;;;;24.25;32.49;95105.38;5035969;28;20056;-74
2023/09/09 09:50:22;;;;;;;5.30;2.45;;;;;;;24.33;32.93;95095.59;5052002;28;20055;-73
2023/09/09 09:52:55;;;;;;;3.67;2.40;;;;;;;24.47;32.65;95087.41;5035960;28;20033;-74
2023/09/09 09:55:21;;;;;;;4.93;2.28;;;;;;;24.59;33.11;95102.72;5051826;28;20086;-74
2023/09/09 09:57:46;;;;;;;4.70;2.45;;;;;;;24.92;32.21;95084.84;5035188;28;20021;-74
2023/09/09 10:00:15;;;;;;;3.35;2.35;;;;;;;24.84;32.05;95097.56;5019009;28;20035;-74
2023/09/09 10:02:41;;;;;;;5.75;2.28;;;;;;;24.76;31.44;95085.31;5018820;28;20029;-74
2023/09/09 10:05:10;;;;;;;4.15;2.10;;;;;;;24.96;31.45;95071.97;5018632;28;20032;-74
2023/09/09 10:07:36;;;;;;;4.28;2.40;;;;;;;25.02;30.56;95072.97;5018917;28;20036;-74
2023/09/09 10:10:07;;;;;;;6.20;2.33;;;;;;;24.86;30.23;95075.06;5018657;28;20021;-74
2023/09/09 10:12:51;;;;;;;5.97;2.10;;;;;;;24.65;30.68;95072.66;5019587;28;20123;-74
2023/09/09 10:15:17;;;;;;;2.72;1.65;;;;;;;24.88;26.69;95072.22;5018959;28;20029;-74
2023/09/09 10:17:43;;;;;;;3.33;1.33;;;;;;;24.77;25.01;95079.00;5018560;28;20235;-74
2023/09/09 10:20:11;;;;;;;2.40;1.50;;;;;;;25.05;24.40;95065.41;5051515;28;20112;-74
2023/09/09 10:22:36;;;;;;;3.85;1.40;;;;;;;24.91;23.40;95056.66;5052652;28;20108;-74
2023/09/09 10:25:03;;;;;;;3.30;1.20;;;;;;;24.80;22.93;95046.69;5018201;28;20464;-73
2023/09/09 10:27:29;;;;;;;9.05;2.10;;;;;;;24.79;24.44;95053.00;5018961;28;20036;-74
2023/09/09 10:29:55;;;;;;;2.92;1.48;;;;;;;24.85;24.46;95059.31;5034580;28;20056;-74
2023/09/09 10:32:21;;;;;;;2.67;1.40;;;;;;;24.92;24.10;95058.28;5018565;28;20025;-74
2023/09/09 10:34:46;;;;;;;2.78;1.40;;;;;;;24.83;24.17;95062.22;5017970;28;20523;-74
2023/09/09 10:37:13;;;;;;;3.72;1.80;;;;;;;24.76;24.88;95048.13;5034489;28;20495;-74
2023/09/09 10:39:38;;;;;;;5.40;1.80;;;;;;;24.71;23.84;95050.59;5034442;28;20490;-74
2023/09/09 10:42:04;;;;;;;2.60;1.30;;;;;;;24.79;24.29;95052.19;5050554;28;20090;-74
2023/09/09 10:44:30;;;;;;;3.25;1.48;;;;;;;24.92;24.02;95047.66;5034280;28;20059;-74
2023/09/09 10:46:56;;;;;;;2.47;1.55;;;;;;;24.83;23.49;95034.84;5051076;28;20475;-74
2023/09/09 10:49:26;;;;;;;2.28;1.40;;;;;;;24.87;23.66;95042.16;5034170;28;20037;-74
2023/09/09 10:51:52;;;;;;;;;;;;;;;24.90;24.83;95039.06;5034983;28;20060;-74
2023/09/09 10:54:18;;;;;;;7.63;1.80;;;;;;;25.07;23.90;95031.44;5050811;28;19990;-74
2023/09/09 10:56:45;;;;;;;2.55;1.60;;;;;;;24.98;24.26;95006.97;5017800;28;20045;-74
2023/09/09 10:59:18;;;;;;;2.63;1.38;;;;;;;25.12;24.02;95044.91;5017874;28;20043;-74
2023/09/09 11:01:43;;;;;;;5.47;1.60;;;;;;;25.36;24.10;95024.78;5034462;28;20319;-74
2023/09/09 11:04:21;;;;;;;2.85;2.03;;;;;;;25.14;23.69;95034.09;5050634;28;20037;-74
2023/09/09 11:07:13;;;;;;;2.88;1.55;;;;;;;25.20;23.65;95033.25;5017906;28;20036;-74
2023/09/09 11:09:38;;;;;;;2.47;1.40;;;;;;;25.30;22.40;95000.91;5050591;28;20110;-74
2023/09/09 11:12:12;;;;;;;3.15;1.35;;;;;;;25.32;22.83;95022.75;5050424;28;20495;-74
2023/09/09 11:14:44;;;;;;;5.75;1.70;;;;;;;25.40;23.35;95027.81;5050384;28;20116;-74
2023/09/09 11:17:09;;;;;;;3.28;1.45;;;;;;;25.21;23.43;95024.25;5034624;28;20032;-74
2023/09/09 11:19:35;;;;;;;2.63;1.48;;;;;;;25.33;23.22;95016.44;5050351;28;20029;-75
2023/09/09 11:22:00;;;;;;;2.97;1.50;;;;;;;25.15;23.61;94998.53;5050489;28;20110;-74